Time;durP1;ratioP1;P1;durP2;ratioP2;P2;SDS_P1;SDS_P2;PMS_P1;PMS_P2;Temp;Humidity;BMP_temperature;BMP_pressure;BME280_temperature;BME280_humidity;BME280_pressure;Samples;Min_cycle;Max_cycle;Signal;HPM_P1;HPM_P2
2022/04/19 00:06:14;;;;;;;4.00;2.40;;;;;;;4.12;48.32;99077.58;446184;1267;140937;-69
2022/04/19 00:16:20;;;;;;;5.90;3.20;;;;;;;4.01;49.34;99079.10;447323;1268;141720;-69
2022/04/19 00:26:26;;;;;;;6.50;3.60;;;;;;;3.94;50.39;99079.60;448057;1267;196009;-69
2022/04/19 00:36:32;;;;;;;4.60;3.10;;;;;;;3.86;51.35;99075.09;444756;1267;140853;-69
2022/04/19 00:46:38;;;;;;;4.00;2.90;;;;;;;3.73;51.80;99070.45;447366;1266;141330;-69
2022/04/19 00:56:44;;;;;;;3.70;2.10;;;;;;;3.59;52.52;99061.20;448097;1267;141150;-69
2022/04/19 01:06:50;;;;;;;4.20;2.80;;;;;;;3.45;53.38;99041.06;446972;1269;141574;-68
2022/04/19 01:16:56;;;;;;;3.10;2.30;;;;;;;3.32;54.16;99026.00;446959;1267;141159;-69
2022/04/19 01:27:03;;;;;;;3.80;2.70;;;;;;;3.31;54.85;99016.05;442183;1267;140673;-68
2022/04/19 01:37:09;;;;;;;2.80;2.10;;;;;;;3.38;55.06;99006.39;447313;1267;141243;-68
2022/04/19 01:47:15;;;;;;;2.30;2.10;;;;;;;3.44;55.69;98999.52;448076;1267;140934;-69
2022/04/19 01:57:21;;;;;;;5.50;2.90;;;;;;;3.48;55.82;98999.71;448110;1267;141067;-68
2022/04/19 02:07:27;;;;;;;3.50;2.90;;;;;;;3.55;56.21;98996.14;447306;1267;141304;-68
2022/04/19 02:17:33;;;;;;;3.30;2.50;;;;;;;3.61;57.04;98997.60;447938;1266;140714;-69
2022/04/19 02:27:42;;;;;;;2.20;1.80;;;;;;;3.62;57.72;98994.23;448096;1266;141546;-68
2022/04/19 02:37:53;;;;;;;4.30;2.50;;;;;;;3.64;58.78;98990.38;445548;1267;141647;-69
2022/04/19 02:48:04;;;;;;;7.20;3.50;;;;;;;3.55;59.57;98993.53;448050;1267;141020;-70
2022/04/19 02:58:10;;;;;;;4.10;3.10;;;;;;;3.47;60.71;98991.63;447337;1267;142311;-69
2022/04/19 03:08:16;;;;;;;8.80;3.30;;;;;;;3.33;61.61;98983.27;438073;1267;141990;-68
2022/04/19 03:18:22;;;;;;;5.20;3.60;;;;;;;3.12;62.54;98987.45;441198;1269;141002;-69
2022/04/19 03:28:28;;;;;;;4.50;3.90;;;;;;;2.94;63.18;98986.81;447398;1267;141524;-69
2022/04/19 03:38:34;;;;;;;6.10;3.70;;;;;;;2.92;63.62;98991.75;448077;1267;141870;-68
2022/04/19 03:48:39;;;;;;;4.60;4.20;;;;;;;2.99;64.29;98989.20;447834;1269;143310;-68
2022/04/19 03:58:45;;;;;;;5.80;4.70;;;;;;;3.04;64.73;98990.02;447467;1268;142159;-69
2022/04/19 04:08:51;;;;;;;4.70;4.30;;;;;;;3.04;64.90;98991.73;448146;1267;142377;-68
2022/04/19 04:18:57;;;;;;;4.90;4.40;;;;;;;2.96;64.87;98993.13;447263;1267;142302;-69
2022/04/19 04:29:03;;;;;;;3.90;3.30;;;;;;;2.87;65.13;98998.69;444219;1267;141851;-68
2022/04/19 04:39:09;;;;;;;6.70;4.60;;;;;;;2.85;65.70;99001.36;447812;1269;142834;-68
2022/04/19 04:59:38;;;;;;;5.10;4.60;;;;;;;2.76;66.38;99007.95;448084;1267;142484;-68
2022/04/19 05:09:44;;;;;;;5.40;4.90;;;;;;;2.83;66.38;99010.77;447318;1266;141803;-67
2022/04/19 05:19:50;;;;;;;4.10;3.70;;;;;;;2.92;66.66;99007.65;447827;1269;142406;-69
2022/04/19 05:29:56;;;;;;;3.50;3.20;;;;;;;2.97;66.78;99008.13;447904;1267;144196;-68
2022/04/19 05:40:01;;;;;;;3.40;3.00;;;;;;;2.98;66.84;99016.04;447215;1267;197994;-68
2022/04/19 05:50:09;;;;;;;5.10;4.30;;;;;;;2.97;67.59;99021.46;447995;1266;142351;-68
2022/04/19 06:00:16;;;;;;;4.90;4.40;;;;;;;3.19;67.13;99023.79;448100;1265;141038;-69
2022/04/19 06:10:22;;;;;;;4.70;3.80;;;;;;;3.38;67.06;99030.63;447350;1267;142689;-68
2022/04/19 06:20:28;;;;;;;5.10;4.30;;;;;;;3.59;66.96;99040.98;445939;1267;142619;-69
2022/04/19 06:30:33;;;;;;;4.40;4.00;;;;;;;3.91;66.83;99049.91;444275;1266;142035;-68
2022/04/19 06:40:39;;;;;;;2.80;2.50;;;;;;;5.26;65.39;99053.42;431078;1268;142501;-67
2022/04/19 06:50:45;;;;;;;2.90;2.60;;;;;;;5.26;63.74;99060.21;444849;1265;142257;-69
2022/04/19 07:01:11;;;;;;;3.60;2.70;;;;;;;5.15;63.56;99063.31;447075;1269;141622;-68
2022/04/19 07:11:17;;;;;;;2.90;2.70;;;;;;;5.79;63.00;99076.04;447846;1269;142471;-69
2022/04/19 07:32:02;;;;;;;4.00;3.70;;;;;;;8.19;58.52;99087.71;448001;1267;141976;-62
2022/04/19 07:42:09;;;;;;;5.20;4.30;;;;;;;6.62;58.63;99100.52;443067;1270;141751;-58
2022/04/19 07:52:15;;;;;;;4.80;4.30;;;;;;;5.39;59.72;99116.80;447361;1268;144549;-59
2022/04/19 08:02:21;;;;;;;4.60;4.20;;;;;;;4.83;60.94;99128.23;444195;1269;142444;-58
2022/04/19 08:12:27;;;;;;;5.50;4.70;;;;;;;4.92;61.73;99139.58;445961;1267;141415;-57
2022/04/19 08:22:33;;;;;;;7.30;4.70;;;;;;;5.62;61.03;99153.34;435802;1270;142443;-64
2022/04/19 08:32:39;;;;;;;5.30;4.70;;;;;;;5.61;60.43;99160.35;441183;1267;143146;-61
2022/04/19 08:42:46;;;;;;;4.10;3.70;;;;;;;6.04;60.36;99164.80;431064;1267;141098;-63
2022/04/19 09:03:13;;;;;;;4.90;4.20;;;;;;;5.92;60.32;99176.32;432824;1268;140594;-65
2022/04/19 09:13:23;;;;;;;5.50;5.00;;;;;;;5.79;59.58;99189.84;447250;1268;140728;-65
2022/04/19 09:23:31;;;;;;;6.30;5.80;;;;;;;6.14;59.45;99189.98;448109;1267;142672;-66
2022/04/19 09:33:37;;;;;;;5.10;3.80;;;;;;;7.00;57.87;99198.14;448066;1267;140999;-66
2022/04/19 09:43:43;;;;;;;7.80;5.30;;;;;;;7.02;57.01;99203.07;447820;1269;141385;-66
2022/04/19 09:53:50;;;;;;;8.10;6.00;;;;;;;6.97;56.57;99208.58;436854;1268;141642;-66
2022/04/19 10:14:24;;;;;;;6.70;5.50;;;;;;;7.48;55.59;99219.48;439067;1268;141159;-66
2022/04/19 10:24:30;;;;;;;5.60;4.90;;;;;;;7.71;54.83;99224.65;437853;1268;141463;-65
2022/04/19 10:34:37;;;;;;;7.80;5.70;;;;;;;7.36;54.19;99236.02;432380;1268;140382;-66
2022/04/19 10:44:50;;;;;;;5.50;5.00;;;;;;;7.37;53.05;99237.31;447922;1269;201812;-67
2022/04/19 10:55:06;;;;;;;5.50;5.00;;;;;;;7.96;52.00;99248.65;447412;1267;140030;-66
2022/04/19 11:05:38;;;;;;;8.00;7.00;;;;;;;8.34;51.68;99255.64;448137;1268;140632;-62
2022/04/19 11:15:44;;;;;;;7.00;5.80;;;;;;;9.11;50.63;99267.36;447313;1268;141710;-60
2022/04/19 11:25:51;;;;;;;5.90;5.30;;;;;;;9.65;49.25;99269.59;442414;1268;142331;-58
2022/04/19 11:36:03;;;;;;;6.10;4.60;;;;;;;9.56;48.65;99266.12;448057;1267;140450;-61
2022/04/19 11:56:33;;;;;;;6.00;4.00;;;;;;;9.25;48.74;99268.44;436796;1268;395176;-61
2022/04/19 12:06:38;;;;;;;4.80;4.40;;;;;;;9.07;47.74;99272.91;448035;1267;141929;-60
2022/04/19 12:16:54;;;;;;;4.10;3.70;;;;;;;8.83;47.48;99271.56;448019;1268;185639;-62
2022/04/19 12:27:08;;;;;;;6.50;5.50;;;;;;;8.58;47.46;99268.16;447043;1269;142401;-61
2022/04/19 12:37:17;;;;;;;6.10;5.60;;;;;;;8.37;48.40;99273.95;443125;1268;140679;-61
2022/04/19 12:47:27;;;;;;;7.40;6.20;;;;;;;8.54;48.50;99268.61;448119;1267;141487;-61
2022/04/19 12:57:35;;;;;;;6.20;5.20;;;;;;;8.92;48.44;99266.65;448147;1267;141378;-58
2022/04/19 13:18:08;;;;;;;5.20;4.70;;;;;;;9.52;46.67;99261.48;439032;1267;139973;-64
2022/04/19 13:28:14;;;;;;;5.00;4.50;;;;;;;9.55;45.17;99260.41;447426;1267;140910;-63
2022/04/19 13:38:26;;;;;;;5.70;4.80;;;;;;;9.24;44.79;99259.77;448176;1267;141067;-65
2022/04/19 13:48:32;;;;;;;6.30;5.70;;;;;;;9.12;45.31;99254.25;448128;1265;140709;-63
2022/04/19 13:58:39;;;;;;;12.00;6.00;;;;;;;8.92;45.16;99257.94;447465;1268;140764;-62
2022/04/19 14:08:45;;;;;;;6.50;5.80;;;;;;;8.88;45.28;99260.06;448179;1266;141896;-60
2022/04/19 14:18:51;;;;;;;9.10;7.30;;;;;;;8.74;45.36;99263.59;447189;1267;140536;-57
2022/04/19 14:39:21;;;;;;;6.80;6.10;;;;;;;8.65;45.76;99265.00;437471;1267;140670;-66
2022/04/19 14:49:27;;;;;;;6.50;5.80;;;;;;;8.74;45.25;99268.45;446094;1268;199588;-65
2022/04/19 14:59:33;;;;;;;8.10;7.20;;;;;;;8.58;44.57;99275.86;448151;1267;141684;-66
2022/04/19 15:09:40;;;;;;;6.00;5.40;;;;;;;8.19;44.59;99284.06;448188;1267;141325;-65
2022/04/19 15:19:46;;;;;;;8.70;7.30;;;;;;;8.45;44.65;99281.86;441392;1267;141936;-64
2022/04/19 15:29:53;;;;;;;7.10;6.40;;;;;;;8.55;44.42;99289.86;442284;1268;142622;-64
2022/04/19 15:39:59;;;;;;;5.40;4.50;;;;;;;8.39;44.00;99286.25;441555;1269;141072;-65
2022/04/19 15:50:06;;;;;;;6.70;5.90;;;;;;;8.37;44.47;99291.56;447911;1267;140301;-65
2022/04/19 16:00:13;;;;;;;6.10;5.40;;;;;;;8.33;44.82;99296.48;443990;1268;141689;-64
2022/04/19 16:10:19;;;;;;;7.60;6.10;;;;;;;8.01;45.11;99295.71;446894;1269;144552;-65
2022/04/19 16:30:49;;;;;;;9.80;7.00;;;;;;;7.61;45.46;99293.67;447107;1268;141882;-66
2022/04/19 16:40:55;;;;;;;7.00;6.00;;;;;;;7.39;45.14;99298.90;447788;1268;141888;-65
2022/04/19 16:51:01;;;;;;;8.50;6.50;;;;;;;7.13;45.44;99304.30;447806;1267;140329;-64
2022/04/19 17:01:07;;;;;;;9.20;6.00;;;;;;;6.86;45.80;99310.79;447216;1268;144429;-65
2022/04/19 17:11:13;;;;;;;5.90;5.20;;;;;;;6.72;46.10;99318.44;447731;1269;142289;-65
2022/04/19 17:21:19;;;;;;;6.10;5.50;;;;;;;6.57;46.72;99330.34;443538;1268;140704;-64
2022/04/19 17:31:25;;;;;;;9.20;7.00;;;;;;;6.40;46.71;99331.05;446871;1270;141667;-65
2022/04/19 17:41:31;;;;;;;10.70;8.10;;;;;;;6.13;47.15;99337.27;447897;1268;141801;-65
2022/04/19 18:02:00;;;;;;;8.60;4.90;;;;;;;5.57;47.94;99343.39;447913;1268;140827;-66
2022/04/19 18:12:07;;;;;;;6.90;6.20;;;;;;;5.39;48.29;99349.41;447967;1267;141311;-66
2022/04/19 18:32:37;;;;;;;6.70;5.60;;;;;;;5.09;49.59;99359.27;438054;1268;140955;-64
2022/04/19 18:42:43;;;;;;;9.20;6.10;;;;;;;4.94;50.35;99367.39;445575;1268;141495;-63
2022/04/19 18:52:48;;;;;;;7.50;6.10;;;;;;;4.71;50.92;99377.09;444635;1268;141397;-65
2022/04/19 19:02:55;;;;;;;8.50;7.10;;;;;;;4.45;51.45;99380.42;445143;1267;142189;-63
2022/04/19 19:13:03;;;;;;;8.20;5.60;;;;;;;4.23;52.02;99384.78;442878;1268;141424;-65
2022/04/19 19:23:09;;;;;;;7.10;5.60;;;;;;;4.05;52.59;99379.45;447987;1268;141426;-65
2022/04/19 19:33:15;;;;;;;10.00;6.90;;;;;;;3.87;53.39;99378.08;447869;1268;144841;-65
2022/04/19 19:43:21;;;;;;;7.50;6.40;;;;;;;3.72;54.27;99376.61;447104;1267;142875;-65
2022/04/19 19:53:27;;;;;;;11.20;7.80;;;;;;;3.57;55.38;99380.45;447962;1267;140986;-66
2022/04/19 20:03:33;;;;;;;11.30;7.40;;;;;;;3.41;56.43;99383.84;448085;1267;141490;-66
2022/04/19 20:13:39;;;;;;;15.50;9.60;;;;;;;3.26;56.97;99383.34;447359;1266;141892;-66
2022/04/19 20:23:47;;;;;;;13.50;7.70;;;;;;;3.10;57.60;99378.21;447878;1270;142118;-66
2022/04/19 20:33:53;;;;;;;12.80;7.80;;;;;;;2.89;58.13;99372.92;435730;1268;142205;-65
2022/04/19 20:43:59;;;;;;;12.80;9.30;;;;;;;2.67;58.94;99370.06;447821;1269;141568;-65
2022/04/19 20:54:06;;;;;;;18.40;10.30;;;;;;;2.51;59.72;99357.98;447788;1267;143097;-65
2022/04/19 21:04:12;;;;;;;16.60;10.30;;;;;;;2.41;60.63;99365.92;447222;1267;141675;-65
2022/04/19 21:14:18;;;;;;;21.90;13.80;;;;;;;2.63;61.17;99373.15;447696;1269;142474;-65
2022/04/19 21:24:25;;;;;;;23.30;12.40;;;;;;;2.89;61.21;99379.67;448038;1267;142408;-67
2022/04/19 21:34:31;;;;;;;21.20;15.10;;;;;;;3.09;61.13;99382.23;447142;1265;142126;-65
2022/04/19 21:44:38;;;;;;;21.40;15.70;;;;;;;3.30;60.74;99378.34;447630;1267;187805;-66
2022/04/19 21:54:44;;;;;;;27.40;15.80;;;;;;;3.55;59.56;99376.02;436268;1267;141421;-63
2022/04/19 22:04:50;;;;;;;23.30;14.90;;;;;;;3.70;59.32;99372.52;448136;1268;141418;-64
2022/04/19 22:14:55;;;;;;;18.10;12.50;;;;;;;3.79;59.17;99360.39;447973;1267;192039;-63
2022/04/19 22:25:01;;;;;;;18.30;13.20;;;;;;;3.86;58.73;99348.67;447393;1267;141076;-64
2022/04/19 22:35:08;;;;;;;16.80;12.50;;;;;;;3.87;58.75;99340.50;441163;1267;142096;-63
2022/04/19 22:45:14;;;;;;;21.80;17.40;;;;;;;3.84;58.58;99331.46;448165;1268;142031;-63
2022/04/19 22:55:20;;;;;;;16.90;13.10;;;;;;;3.90;58.73;99326.02;445175;1267;143718;-63
2022/04/19 23:05:27;;;;;;;13.90;10.70;;;;;;;3.97;58.91;99309.63;430822;1268;140508;-62
2022/04/19 23:15:34;;;;;;;10.10;8.10;;;;;;;4.01;58.47;99307.02;447762;1270;141563;-63
2022/04/19 23:25:40;;;;;;;14.90;11.80;;;;;;;4.06;58.84;99297.49;447362;1267;142399;-64
2022/04/19 23:35:46;;;;;;;14.30;11.10;;;;;;;4.05;59.06;99293.89;448097;1268;141830;-64
2022/04/19 23:45:52;;;;;;;15.00;10.90;;;;;;;4.03;59.49;99287.05;446977;1270;141989;-63
2022/04/19 23:55:58;;;;;;;13.20;10.90;;;;;;;4.03;59.73;99284.27;447640;1267;237346;-64
